createdAt,value
2022-08-08T00:00:54.656Z,161.66784
2022-08-08T00:06:03.769Z,200.66667
2022-08-08T00:11:07.932Z,191.38956
2022-08-08T00:16:14.942Z,184.625
2022-08-08T00:21:16.933Z,194.4065
2022-08-08T00:26:26.300Z,160.90141
2022-08-08T00:32:28.742Z,163.21708
2022-08-08T00:37:47.742Z,154.9589
2022-08-08T00:43:06.043Z,151.40741
2022-08-08T00:48:29.312Z,160.90141
2022-08-08T00:53:32.270Z,189.41833
2022-08-08T00:58:54.070Z,160.90141
2022-08-08T01:04:02.028Z,164.78853
2022-08-08T01:09:36.487Z,142.07074
2022-08-08T01:14:53.998Z,153.52381
2022-08-08T01:20:03.284Z,141.4359
2022-08-08T01:25:05.370Z,115.58774
2022-08-08T01:30:10.160Z,114.16575
2022-08-08T01:35:12.484Z,102.76289
2022-08-08T01:40:14.748Z,100.34518
2022-08-08T01:45:16.574Z,89.28302
2022-08-08T01:50:20.757Z,87.92523
2022-08-08T01:56:27.134Z,81.19376
2022-08-08T02:02:00.330Z,76.18884
2022-08-08T02:07:06.655Z,79.68282
2022-08-08T02:12:08.678Z,85.2844
2022-08-08T02:17:20.399Z,87.92523
2022-08-08T02:22:28.245Z,89.28302
2022-08-08T02:27:38.918Z,98.38596
2022-08-08T02:32:44.692Z,101.14286
2022-08-08T02:37:53.390Z,99.16373
2022-08-08T02:44:35.447Z,96.8536
2022-08-08T02:49:50.882Z,93.87835
2022-08-08T02:54:53.430Z,94.61125
2022-08-08T02:59:58.476Z,88.94118
2022-08-08T03:05:17.616Z,85.2844
2022-08-08T03:10:33.412Z,78.49782
2022-08-08T03:16:00.297Z,75.06383
2022-08-08T03:21:10.200Z,78.20479
2022-08-08T03:26:16.484Z,85.2844
2022-08-08T03:31:25.435Z,86.92343
2022-08-08T03:36:30.092Z,77.04536
2022-08-08T03:42:28.742Z,72.87029
2022-08-08T03:47:39.514Z,71.53623
2022-08-08T03:52:47.895Z,74.78556
2022-08-08T03:58:36.129Z,70.74897
2022-08-08T04:03:58.388Z,84
2022-08-08T04:09:10.758Z,81.5
2022-08-08T04:14:35.373Z,99.16373
2022-08-08T04:19:37.895Z,87.25581
2022-08-08T04:24:40.644Z,82.73874
2022-08-08T04:29:55.396Z,81.19376
2022-08-08T04:35:02.958Z,78.20479
2022-08-08T04:40:08.145Z,86.26328
2022-08-08T04:45:14.163Z,88.60094
2022-08-08T04:50:23.919Z,84
2022-08-08T04:55:29.251Z,85.93548
2022-08-08T05:00:49.933Z,93.87835
2022-08-08T05:05:53.634Z,86.26328
2022-08-08T05:10:55.322Z,81.19376
2022-08-08T05:16:47.961Z,122.55072
2022-08-08T05:22:00.010Z,86.92343
2022-08-08T05:27:02.422Z,83.36652
2022-08-08T05:32:06.152Z,86.26328
2022-08-08T05:37:18.516Z,66.46521
2022-08-08T05:42:25.733Z,74.23256
2022-08-08T05:47:29.897Z,83.36652
2022-08-08T05:52:54.780Z,84.31891
2022-08-08T05:58:04.067Z,88.94118
2022-08-08T06:03:07.628Z,97.23383
2022-08-08T06:08:28.266Z,91.36842
2022-08-08T06:13:47.066Z,91.01671
2022-08-08T06:18:50.142Z,84.9611
2022-08-08T06:24:02.278Z,85.2844
2022-08-08T06:29:10.678Z,73.41176
2022-08-08T06:34:52.552Z,81.19376
2022-08-08T06:40:16.169Z,78.20479
2022-08-08T06:45:18.499Z,72.06653
2022-08-08T06:50:32.334Z,69.71429
2022-08-08T06:55:37.427Z,71.01031
2022-08-08T07:00:41.027Z,75.62393
2022-08-08T07:05:42.834Z,80.88889
2022-08-08T07:11:03.627Z,76.47312
2022-08-08T07:16:10.259Z,76.47312
2022-08-08T07:21:19.078Z,80.58537
2022-08-08T07:26:28.942Z,78.49782
2022-08-08T07:31:35.300Z,73.14046
2022-08-08T07:36:37.427Z,81.19376
2022-08-08T07:42:03.527Z,74.50847
2022-08-08T07:47:06.483Z,69.71429
2022-08-08T07:52:09.033Z,66.46521
2022-08-08T07:57:17.058Z,65.73913
2022-08-08T08:02:34.910Z,70.74897
2022-08-08T08:07:40.102Z,75.34328
2022-08-08T08:12:43.531Z,79.98234
2022-08-08T08:17:48.506Z,73.14046
2022-08-08T08:22:51.122Z,76.47312
2022-08-08T08:27:53.374Z,70.48871
2022-08-08T08:32:55.016Z,72.33333
2022-08-08T08:38:15.796Z,68.19355
2022-08-08T08:43:20.290Z,65.25984
2022-08-08T08:48:28.908Z,65.02161
2022-08-08T08:53:56.199Z,65.02161
2022-08-08T08:59:01.715Z,68.69636
2022-08-08T09:04:03.715Z,75.90578
2022-08-08T09:09:05.330Z,80.28319
2022-08-08T09:14:09.276Z,74.78556
2022-08-08T09:19:12.198Z,75.34328
2022-08-08T09:24:14.472Z,68.94929
2022-08-08T09:29:22.553Z,70.22951
2022-08-08T09:34:32.442Z,74.78556
2022-08-08T09:39:34.708Z,73.14046
2022-08-08T09:44:38.237Z,73.68421
2022-08-08T09:49:49.851Z,65.49901
2022-08-08T09:54:52.025Z,67.69478
2022-08-08T10:00:28.719Z,79.68282
2022-08-08T10:05:36.057Z,73.68421
2022-08-08T10:10:49.794Z,72.60125
2022-08-08T10:16:00.789Z,72.33333
2022-08-08T10:21:22.940Z,75.90578
2022-08-08T10:26:30.640Z,75.34328
2022-08-08T10:31:46.733Z,72.60125
2022-08-08T10:36:49.265Z,77.91304
2022-08-08T10:41:58.830Z,78.20479
2022-08-08T10:47:20.719Z,89.28302
2022-08-08T10:52:28.119Z,76.18884
2022-08-08T10:57:45.144Z,73.68421
2022-08-08T11:02:52.325Z,77.33333
2022-08-08T11:08:38.099Z,79.08772
2022-08-08T11:13:41.054Z,91.36842
2022-08-08T11:18:53.872Z,76.75862
2022-08-08T11:24:02.125Z,76.47312
2022-08-08T11:29:04.729Z,110.03774
2022-08-08T11:34:22.911Z,85.6092
2022-08-08T11:39:27.657Z,74.50847
2022-08-08T11:44:39.111Z,71.01031
2022-08-08T11:49:42.688Z,74.23256
2022-08-08T11:54:46.683Z,75.06383
2022-08-08T11:59:58.400Z,73.14046
2022-08-08T12:05:04.288Z,76.47312
2022-08-08T12:10:08.828Z,79.98234
2022-08-08T12:15:10.744Z,76.47312
2022-08-08T12:20:14.826Z,73.41176
2022-08-08T12:25:16.448Z,72.87029
2022-08-08T12:30:21.727Z,73.68421
2022-08-08T12:35:26.860Z,72.87029
2022-08-08T12:40:29.854Z,73.68421
2022-08-08T12:45:58.204Z,73.14046
2022-08-08T12:51:04.383Z,77.91304
2022-08-08T12:56:18.713Z,84.9611
2022-08-08T13:01:36.239Z,75.62393
2022-08-08T13:06:38.885Z,82.42697
2022-08-08T13:12:04.040Z,75.62393
2022-08-08T13:18:08.559Z,72.60125
2022-08-08T13:23:30.855Z,70.74897
2022-08-08T13:28:42.068Z,73.68421
2022-08-08T13:33:44.478Z,75.90578
2022-08-08T13:38:46.081Z,69.97137
2022-08-08T13:43:49.936Z,71.80083
2022-08-08T13:50:33.605Z,69.97137
2022-08-08T13:55:39.903Z,76.18884
2022-08-08T14:00:45.976Z,82.11659
2022-08-08T14:06:00.525Z,96.09877
2022-08-08T14:11:03.331Z,100.34518
2022-08-08T14:16:15.835Z,100.34518
2022-08-08T14:21:20.762Z,103.17313
2022-08-08T14:26:28.106Z,98.77387
2022-08-08T14:31:36.830Z,124.64516
2022-08-08T14:37:08.293Z,128.98498
2022-08-08T14:42:10.264Z,131.80488
2022-08-08T14:47:16.898Z,145.30719
2022-08-08T14:52:23.252Z,142.07074
2022-08-08T14:58:02.985Z,152.10811
2022-08-08T15:03:16.081Z,169.64103
2022-08-08T15:08:22.111Z,170.47059
2022-08-08T15:13:40.954Z,176.45283
2022-08-08T15:19:03.132Z,191.38956
2022-08-08T15:24:04.746Z,191.38956
2022-08-08T15:29:14.291Z,191.38956
2022-08-08T15:34:18.812Z,172.14815
2022-08-08T15:39:37.439Z,169.64103
2022-08-08T15:44:41.018Z,200.66667
2022-08-08T15:49:43.889Z,203.91561
2022-08-08T15:54:46.108Z,220.23318
2022-08-08T16:00:10.971Z,243.02913
2022-08-08T16:05:36.062Z,248.9505
2022-08-08T16:13:28.300Z,207.24786
2022-08-08T16:18:35.957Z,217.77778
2022-08-08T16:23:37.568Z,210.66667
2022-08-08T16:28:41.479Z,256.69036
2022-08-08T16:33:59.060Z,258.28571
2022-08-08T16:39:01.310Z,264.83333
2022-08-08T16:44:12.855Z,202.82353
2022-08-08T16:49:14.653Z,215.36564
2022-08-08T16:55:18.387Z,221.47748
2022-08-08T17:00:27.422Z,225.27854
2022-08-08T17:05:31.363Z,229.18519
2022-08-08T17:10:57.923Z,222.73303
2022-08-08T17:16:15.204Z,241.58454
2022-08-08T17:21:17.390Z,235.94313
2022-08-08T17:26:28.826Z,237.33333
2022-08-08T17:31:44.243Z,304.23392
2022-08-08T17:37:00.363Z,237.33333
2022-08-08T17:42:04.962Z,248.9505
2022-08-08T17:47:06.670Z,304.23392
2022-08-08T17:52:11.473Z,280.61202
2022-08-08T17:57:14.231Z,266.51309
2022-08-08T18:02:21.231Z,235.94313
2022-08-08T18:08:02.356Z,263.17098
2022-08-08T18:13:07.580Z,247.44828
2022-08-08T18:18:29.260Z,268.21053
2022-08-08T18:23:33.695Z,264.83333
2022-08-08T18:28:54.796Z,282.46154
2022-08-08T18:34:12.268Z,296
2022-08-08T18:39:29.612Z,276.97297
2022-08-08T18:44:32.913Z,275.1828
2022-08-08T18:49:54.694Z,298.02299
2022-08-08T18:55:09.634Z,266.51309
2022-08-08T19:00:16.816Z,269.92593
2022-08-08T19:05:21.577Z,269.92593
2022-08-08T19:10:23.370Z,271.65957
2022-08-08T19:15:33.879Z,284.33149
2022-08-08T19:20:36.159Z,292.0226
2022-08-08T19:26:02.019Z,308.49704
2022-08-08T19:31:31.042Z,326.6087
2022-08-08T19:36:36.565Z,377.80282
2022-08-08T19:41:39.888Z,331.42138
2022-08-08T19:46:43.177Z,387.16547
2022-08-08T19:51:46.654Z,390.37681
2022-08-08T19:56:50.691Z,384
2022-08-08T20:02:03.552Z,400.2963
2022-08-08T20:08:30.538Z,390.37681
2022-08-08T20:14:31.545Z,371.77778
2022-08-08T20:19:42.247Z,374.76923
2022-08-08T20:24:45.148Z,380.87943
2022-08-08T20:30:01.078Z,365.91781
2022-08-08T20:35:03.163Z,319.60976
2022-08-08T20:40:04.829Z,329
2022-08-08T20:45:06.490Z,341.41935
2022-08-08T20:50:10.015Z,333.87342
2022-08-08T20:55:16.228Z,294
2022-08-08T21:00:27.497Z,296
2022-08-08T21:05:31.957Z,324.24691
2022-08-08T21:10:33.854Z,324.24691
2022-08-08T21:16:05.811Z,292.0226
2022-08-08T21:21:29.755Z,310.66667
2022-08-08T21:26:42.920Z,284.33149
2022-08-08T21:31:53.030Z,284.33149
2022-08-08T21:37:05.290Z,300.06936
2022-08-08T21:42:13.043Z,308.49704
2022-08-08T21:48:08.717Z,302.13953
2022-08-08T21:54:34.835Z,315.08434
2022-08-08T22:00:02.836Z,329
2022-08-08T22:05:06.456Z,290.06742
2022-08-08T22:10:09.362Z,253.54774
2022-08-08T22:15:11.206Z,282.46154
2022-08-08T22:20:23.709Z,275.1828
2022-08-08T22:25:29.960Z,317.33333
2022-08-08T22:31:21.764Z,308.49704
2022-08-08T22:36:34.346Z,317.33333
2022-08-08T22:41:36.420Z,284.33149
2022-08-08T22:46:41.152Z,273.41176
2022-08-08T22:51:46.812Z,414.22901
2022-08-08T22:56:50.123Z,365.91781
2022-08-08T23:02:03.721Z,387.16547
2022-08-08T23:07:06.372Z,396.94118
2022-08-08T23:12:28.705Z,351.94702
2022-08-08T23:17:54.074Z,365.91781
2022-08-08T23:22:56.164Z,349.26316
2022-08-08T23:27:57.852Z,387.16547
2022-08-08T23:33:01.148Z,329
2022-08-08T23:38:03.885Z,302.13953
2022-08-08T23:43:05.670Z,288.13408
2022-08-08T23:48:59.628Z,333.87342
2022-08-08T23:54:53.207Z,286.22222
